sensor_id;sensor_type;location;lat;lon;timestamp;P1;durP1;ratioP1;P2;durP2;ratioP2
79212;SDS011;68639;52.380;9.822;2023-08-17T00:00:40;8.52;;;2.25;;
79212;SDS011;68639;52.380;9.822;2023-08-17T00:03:05;8.98;;;2.33;;
79212;SDS011;68639;52.380;9.822;2023-08-17T00:05:31;4.72;;;1.83;;
79212;SDS011;68639;52.380;9.822;2023-08-17T00:07:59;5.45;;;1.70;;
79212;SDS011;68639;52.380;9.822;2023-08-17T00:10:24;7.70;;;1.90;;
79212;SDS011;68639;52.380;9.822;2023-08-17T00:12:49;11.77;;;2.25;;
79212;SDS011;68639;52.380;9.822;2023-08-17T00:15:15;6.03;;;1.83;;
79212;SDS011;68639;52.380;9.822;2023-08-17T00:17:40;6.88;;;1.75;;
79212;SDS011;68639;52.380;9.822;2023-08-17T00:20:05;8.00;;;1.73;;
79212;SDS011;68639;52.380;9.822;2023-08-17T00:22:31;10.30;;;2.08;;
79212;SDS011;68639;52.380;9.822;2023-08-17T00:24:56;10.93;;;2.50;;
79212;SDS011;68639;52.380;9.822;2023-08-17T00:27:21;6.50;;;2.10;;
79212;SDS011;68639;52.380;9.822;2023-08-17T00:29:47;11.02;;;2.05;;
79212;SDS011;68639;52.380;9.822;2023-08-17T00:32:12;10.90;;;2.50;;
79212;SDS011;68639;52.380;9.822;2023-08-17T00:34:38;13.07;;;2.10;;
79212;SDS011;68639;52.380;9.822;2023-08-17T00:37:03;7.82;;;2.20;;
79212;SDS011;68639;52.380;9.822;2023-08-17T00:39:28;8.50;;;2.75;;
79212;SDS011;68639;52.380;9.822;2023-08-17T00:41:53;7.88;;;2.33;;
79212;SDS011;68639;52.380;9.822;2023-08-17T00:44:18;12.38;;;2.25;;
79212;SDS011;68639;52.380;9.822;2023-08-17T00:46:44;7.03;;;2.53;;
79212;SDS011;68639;52.380;9.822;2023-08-17T00:49:09;11.18;;;3.30;;
79212;SDS011;68639;52.380;9.822;2023-08-17T00:51:34;7.22;;;2.60;;
79212;SDS011;68639;52.380;9.822;2023-08-17T00:54:00;9.13;;;2.90;;
79212;SDS011;68639;52.380;9.822;2023-08-17T00:56:26;9.38;;;2.60;;
79212;SDS011;68639;52.380;9.822;2023-08-17T00:58:52;8.70;;;2.97;;
79212;SDS011;68639;52.380;9.822;2023-08-17T01:01:17;8.07;;;3.20;;
79212;SDS011;68639;52.380;9.822;2023-08-17T01:03:42;8.30;;;3.75;;
79212;SDS011;68639;52.380;9.822;2023-08-17T01:06:08;9.75;;;4.30;;
79212;SDS011;68639;52.380;9.822;2023-08-17T01:08:33;12.40;;;5.20;;
79212;SDS011;68639;52.380;9.822;2023-08-17T01:11:05;8.63;;;4.45;;
79212;SDS011;68639;52.380;9.822;2023-08-17T01:13:32;12.48;;;4.68;;
79212;SDS011;68639;52.380;9.822;2023-08-17T01:15:59;11.60;;;4.18;;
79212;SDS011;68639;52.380;9.822;2023-08-17T01:18:31;11.63;;;3.92;;
79212;SDS011;68639;52.380;9.822;2023-08-17T01:20:57;14.27;;;3.72;;
79212;SDS011;68639;52.380;9.822;2023-08-17T01:23:22;10.82;;;4.20;;
79212;SDS011;68639;52.380;9.822;2023-08-17T01:25:48;8.05;;;3.28;;
79212;SDS011;68639;52.380;9.822;2023-08-17T01:28:13;10.82;;;4.13;;
79212;SDS011;68639;52.380;9.822;2023-08-17T01:30:58;15.82;;;4.53;;
79212;SDS011;68639;52.380;9.822;2023-08-17T01:33:25;19.40;;;5.60;;
79212;SDS011;68639;52.380;9.822;2023-08-17T01:38:27;11.60;;;4.13;;
79212;SDS011;68639;52.380;9.822;2023-08-17T01:40:53;11.73;;;5.20;;
79212;SDS011;68639;52.380;9.822;2023-08-17T01:43:18;14.13;;;4.65;;
79212;SDS011;68639;52.380;9.822;2023-08-17T01:45:45;12.48;;;4.30;;
79212;SDS011;68639;52.380;9.822;2023-08-17T01:48:10;15.63;;;4.60;;
79212;SDS011;68639;52.380;9.822;2023-08-17T01:50:36;52.08;;;7.80;;
79212;SDS011;68639;52.380;9.822;2023-08-17T01:53:01;12.77;;;5.40;;
79212;SDS011;68639;52.380;9.822;2023-08-17T01:55:26;19.75;;;7.10;;
79212;SDS011;68639;52.380;9.822;2023-08-17T01:57:52;17.77;;;8.00;;
79212;SDS011;68639;52.380;9.822;2023-08-17T02:00:17;33.90;;;8.43;;
79212;SDS011;68639;52.380;9.822;2023-08-17T02:02:42;26.70;;;9.50;;
79212;SDS011;68639;52.380;9.822;2023-08-17T02:05:07;24.88;;;8.95;;
79212;SDS011;68639;52.380;9.822;2023-08-17T02:07:33;20.40;;;10.07;;
79212;SDS011;68639;52.380;9.822;2023-08-17T02:09:58;18.60;;;7.68;;
79212;SDS011;68639;52.380;9.822;2023-08-17T02:12:24;15.73;;;7.65;;
79212;SDS011;68639;52.380;9.822;2023-08-17T02:14:49;15.10;;;8.43;;
79212;SDS011;68639;52.380;9.822;2023-08-17T02:17:14;29.83;;;10.13;;
79212;SDS011;68639;52.380;9.822;2023-08-17T02:19:41;22.90;;;10.50;;
79212;SDS011;68639;52.380;9.822;2023-08-17T02:22:06;21.98;;;10.65;;
79212;SDS011;68639;52.380;9.822;2023-08-17T02:24:32;17.50;;;8.98;;
79212;SDS011;68639;52.380;9.822;2023-08-17T02:26:57;20.90;;;10.27;;
79212;SDS011;68639;52.380;9.822;2023-08-17T02:29:22;25.58;;;11.93;;
79212;SDS011;68639;52.380;9.822;2023-08-17T02:31:47;24.77;;;10.38;;
79212;SDS011;68639;52.380;9.822;2023-08-17T02:34:13;15.15;;;8.73;;
79212;SDS011;68639;52.380;9.822;2023-08-17T02:36:38;19.88;;;10.43;;
79212;SDS011;68639;52.380;9.822;2023-08-17T02:39:03;16.65;;;9.40;;
79212;SDS011;68639;52.380;9.822;2023-08-17T02:41:28;29.35;;;10.40;;
79212;SDS011;68639;52.380;9.822;2023-08-17T02:43:55;17.15;;;9.02;;
79212;SDS011;68639;52.380;9.822;2023-08-17T02:46:20;21.13;;;9.32;;
79212;SDS011;68639;52.380;9.822;2023-08-17T02:48:45;23.80;;;9.80;;
79212;SDS011;68639;52.380;9.822;2023-08-17T02:51:12;20.85;;;9.73;;
79212;SDS011;68639;52.380;9.822;2023-08-17T02:53:37;18.13;;;10.80;;
79212;SDS011;68639;52.380;9.822;2023-08-17T02:56:03;22.58;;;11.02;;
79212;SDS011;68639;52.380;9.822;2023-08-17T02:58:28;19.25;;;10.02;;
79212;SDS011;68639;52.380;9.822;2023-08-17T03:00:53;22.33;;;11.35;;
79212;SDS011;68639;52.380;9.822;2023-08-17T03:03:19;31.52;;;12.35;;
79212;SDS011;68639;52.380;9.822;2023-08-17T03:05:44;24.92;;;12.02;;
79212;SDS011;68639;52.380;9.822;2023-08-17T03:08:09;19.70;;;11.05;;
79212;SDS011;68639;52.380;9.822;2023-08-17T03:10:34;20.20;;;11.13;;
79212;SDS011;68639;52.380;9.822;2023-08-17T03:12:59;21.00;;;11.02;;
79212;SDS011;68639;52.380;9.822;2023-08-17T03:15:25;24.83;;;13.45;;
79212;SDS011;68639;52.380;9.822;2023-08-17T03:17:50;30.17;;;10.20;;
79212;SDS011;68639;52.380;9.822;2023-08-17T03:20:15;22.05;;;11.80;;
79212;SDS011;68639;52.380;9.822;2023-08-17T03:22:40;17.92;;;10.90;;
79212;SDS011;68639;52.380;9.822;2023-08-17T03:25:06;19.38;;;10.63;;
79212;SDS011;68639;52.380;9.822;2023-08-17T03:27:31;21.23;;;11.88;;
79212;SDS011;68639;52.380;9.822;2023-08-17T03:29:56;25.73;;;12.05;;
79212;SDS011;68639;52.380;9.822;2023-08-17T03:32:21;20.23;;;11.30;;
79212;SDS011;68639;52.380;9.822;2023-08-17T03:34:47;21.23;;;11.55;;
79212;SDS011;68639;52.380;9.822;2023-08-17T03:37:12;19.63;;;10.80;;
79212;SDS011;68639;52.380;9.822;2023-08-17T03:39:37;18.50;;;11.07;;
79212;SDS011;68639;52.380;9.822;2023-08-17T03:42:03;17.52;;;10.77;;
79212;SDS011;68639;52.380;9.822;2023-08-17T03:44:28;23.17;;;12.82;;
79212;SDS011;68639;52.380;9.822;2023-08-17T03:46:53;19.65;;;11.20;;
79212;SDS011;68639;52.380;9.822;2023-08-17T03:49:18;21.25;;;11.88;;
79212;SDS011;68639;52.380;9.822;2023-08-17T03:51:43;20.17;;;10.98;;
79212;SDS011;68639;52.380;9.822;2023-08-17T03:54:09;18.55;;;11.35;;
79212;SDS011;68639;52.380;9.822;2023-08-17T03:56:34;20.15;;;11.95;;
79212;SDS011;68639;52.380;9.822;2023-08-17T03:58:59;21.02;;;10.60;;
79212;SDS011;68639;52.380;9.822;2023-08-17T04:01:24;15.20;;;11.38;;
79212;SDS011;68639;52.380;9.822;2023-08-17T04:03:49;16.60;;;11.43;;
79212;SDS011;68639;52.380;9.822;2023-08-17T04:06:15;17.75;;;11.63;;
79212;SDS011;68639;52.380;9.822;2023-08-17T04:08:40;18.95;;;11.98;;
79212;SDS011;68639;52.380;9.822;2023-08-17T04:11:05;15.18;;;11.80;;
79212;SDS011;68639;52.380;9.822;2023-08-17T04:13:31;17.80;;;11.75;;
79212;SDS011;68639;52.380;9.822;2023-08-17T04:15:56;21.00;;;12.15;;
79212;SDS011;68639;52.380;9.822;2023-08-17T04:18:21;13.98;;;10.50;;
79212;SDS011;68639;52.380;9.822;2023-08-17T04:20:47;17.15;;;10.45;;
79212;SDS011;68639;52.380;9.822;2023-08-17T04:23:12;15.32;;;10.27;;
79212;SDS011;68639;52.380;9.822;2023-08-17T04:25:37;11.35;;;8.75;;
79212;SDS011;68639;52.380;9.822;2023-08-17T04:28:03;17.08;;;11.48;;
79212;SDS011;68639;52.380;9.822;2023-08-17T04:30:28;14.73;;;10.00;;
79212;SDS011;68639;52.380;9.822;2023-08-17T04:32:54;15.95;;;11.15;;
79212;SDS011;68639;52.380;9.822;2023-08-17T04:35:19;18.77;;;11.20;;
79212;SDS011;68639;52.380;9.822;2023-08-17T04:37:44;16.80;;;11.60;;
79212;SDS011;68639;52.380;9.822;2023-08-17T04:40:10;18.20;;;11.63;;
79212;SDS011;68639;52.380;9.822;2023-08-17T04:42:35;17.10;;;11.80;;
79212;SDS011;68639;52.380;9.822;2023-08-17T04:45:00;19.42;;;12.68;;
79212;SDS011;68639;52.380;9.822;2023-08-17T04:47:25;18.60;;;12.73;;
79212;SDS011;68639;52.380;9.822;2023-08-17T04:49:51;23.13;;;13.90;;
79212;SDS011;68639;52.380;9.822;2023-08-17T04:52:16;14.88;;;11.82;;
79212;SDS011;68639;52.380;9.822;2023-08-17T04:54:41;19.25;;;12.68;;
79212;SDS011;68639;52.380;9.822;2023-08-17T04:57:06;17.08;;;11.98;;
79212;SDS011;68639;52.380;9.822;2023-08-17T04:59:31;18.30;;;11.52;;
79212;SDS011;68639;52.380;9.822;2023-08-17T05:01:57;20.05;;;12.40;;
79212;SDS011;68639;52.380;9.822;2023-08-17T05:04:22;24.40;;;13.25;;
79212;SDS011;68639;52.380;9.822;2023-08-17T05:06:47;17.15;;;10.95;;
79212;SDS011;68639;52.380;9.822;2023-08-17T05:09:12;14.63;;;11.85;;
79212;SDS011;68639;52.380;9.822;2023-08-17T05:11:38;16.15;;;11.30;;
79212;SDS011;68639;52.380;9.822;2023-08-17T05:14:03;17.00;;;11.13;;
79212;SDS011;68639;52.380;9.822;2023-08-17T05:16:28;24.08;;;14.65;;
79212;SDS011;68639;52.380;9.822;2023-08-17T05:18:53;19.42;;;12.65;;
79212;SDS011;68639;52.380;9.822;2023-08-17T05:21:18;15.95;;;12.20;;
79212;SDS011;68639;52.380;9.822;2023-08-17T05:23:44;18.25;;;11.82;;
79212;SDS011;68639;52.380;9.822;2023-08-17T05:26:09;18.92;;;11.15;;
79212;SDS011;68639;52.380;9.822;2023-08-17T05:28:34;14.75;;;10.52;;
79212;SDS011;68639;52.380;9.822;2023-08-17T05:31:03;14.50;;;11.05;;
79212;SDS011;68639;52.380;9.822;2023-08-17T05:33:28;19.58;;;12.65;;
79212;SDS011;68639;52.380;9.822;2023-08-17T05:35:54;18.15;;;12.77;;
79212;SDS011;68639;52.380;9.822;2023-08-17T05:38:19;16.35;;;11.23;;
79212;SDS011;68639;52.380;9.822;2023-08-17T05:40:44;18.35;;;13.30;;
79212;SDS011;68639;52.380;9.822;2023-08-17T05:43:10;19.20;;;11.07;;
79212;SDS011;68639;52.380;9.822;2023-08-17T05:45:35;13.32;;;10.00;;
79212;SDS011;68639;52.380;9.822;2023-08-17T05:48:01;14.70;;;9.90;;
79212;SDS011;68639;52.380;9.822;2023-08-17T05:50:27;14.35;;;9.82;;
79212;SDS011;68639;52.380;9.822;2023-08-17T05:52:52;13.55;;;9.95;;
79212;SDS011;68639;52.380;9.822;2023-08-17T05:55:17;13.70;;;9.75;;
79212;SDS011;68639;52.380;9.822;2023-08-17T05:57:42;15.55;;;10.80;;
79212;SDS011;68639;52.380;9.822;2023-08-17T06:00:08;13.43;;;9.80;;
79212;SDS011;68639;52.380;9.822;2023-08-17T06:02:35;12.00;;;8.60;;
79212;SDS011;68639;52.380;9.822;2023-08-17T06:05:00;14.63;;;9.02;;
79212;SDS011;68639;52.380;9.822;2023-08-17T06:07:26;15.02;;;8.88;;
79212;SDS011;68639;52.380;9.822;2023-08-17T06:09:51;12.00;;;8.77;;
79212;SDS011;68639;52.380;9.822;2023-08-17T06:12:16;13.68;;;9.15;;
79212;SDS011;68639;52.380;9.822;2023-08-17T06:14:42;12.02;;;9.32;;
79212;SDS011;68639;52.380;9.822;2023-08-17T06:17:07;12.93;;;9.90;;
79212;SDS011;68639;52.380;9.822;2023-08-17T06:19:33;14.10;;;7.95;;
79212;SDS011;68639;52.380;9.822;2023-08-17T06:21:58;11.65;;;8.10;;
79212;SDS011;68639;52.380;9.822;2023-08-17T06:24:23;11.52;;;8.30;;
79212;SDS011;68639;52.380;9.822;2023-08-17T06:26:48;9.75;;;7.05;;
79212;SDS011;68639;52.380;9.822;2023-08-17T06:29:14;9.80;;;7.05;;
79212;SDS011;68639;52.380;9.822;2023-08-17T06:31:39;9.65;;;7.75;;
79212;SDS011;68639;52.380;9.822;2023-08-17T06:34:04;10.95;;;7.22;;
79212;SDS011;68639;52.380;9.822;2023-08-17T06:36:30;12.13;;;6.97;;
79212;SDS011;68639;52.380;9.822;2023-08-17T06:38:56;8.65;;;7.05;;
79212;SDS011;68639;52.380;9.822;2023-08-17T06:41:21;13.27;;;7.90;;
79212;SDS011;68639;52.380;9.822;2023-08-17T06:43:46;9.25;;;6.22;;
79212;SDS011;68639;52.380;9.822;2023-08-17T06:46:12;10.45;;;6.53;;
79212;SDS011;68639;52.380;9.822;2023-08-17T06:48:37;9.68;;;7.30;;
79212;SDS011;68639;52.380;9.822;2023-08-17T06:51:02;8.93;;;6.32;;
79212;SDS011;68639;52.380;9.822;2023-08-17T06:53:29;8.63;;;6.10;;
79212;SDS011;68639;52.380;9.822;2023-08-17T06:55:54;10.20;;;6.55;;
79212;SDS011;68639;52.380;9.822;2023-08-17T06:58:20;9.00;;;6.32;;
79212;SDS011;68639;52.380;9.822;2023-08-17T07:00:45;10.48;;;6.40;;
79212;SDS011;68639;52.380;9.822;2023-08-17T07:03:10;8.80;;;6.30;;
79212;SDS011;68639;52.380;9.822;2023-08-17T07:05:36;9.20;;;6.25;;
79212;SDS011;68639;52.380;9.822;2023-08-17T07:08:01;9.70;;;6.80;;
79212;SDS011;68639;52.380;9.822;2023-08-17T07:10:27;7.97;;;6.25;;
79212;SDS011;68639;52.380;9.822;2023-08-17T07:12:52;7.63;;;5.82;;
79212;SDS011;68639;52.380;9.822;2023-08-17T07:15:18;9.88;;;6.30;;
79212;SDS011;68639;52.380;9.822;2023-08-17T07:17:44;8.73;;;5.68;;
79212;SDS011;68639;52.380;9.822;2023-08-17T07:20:09;9.30;;;6.10;;
79212;SDS011;68639;52.380;9.822;2023-08-17T07:22:36;9.15;;;5.93;;
79212;SDS011;68639;52.380;9.822;2023-08-17T07:25:01;10.73;;;6.32;;
79212;SDS011;68639;52.380;9.822;2023-08-17T07:27:26;8.80;;;6.10;;
79212;SDS011;68639;52.380;9.822;2023-08-17T07:29:52;8.48;;;6.03;;
79212;SDS011;68639;52.380;9.822;2023-08-17T07:32:17;8.50;;;6.18;;
79212;SDS011;68639;52.380;9.822;2023-08-17T07:34:42;7.85;;;5.78;;
79212;SDS011;68639;52.380;9.822;2023-08-17T07:37:07;9.20;;;6.30;;
79212;SDS011;68639;52.380;9.822;2023-08-17T07:39:32;11.43;;;6.50;;
79212;SDS011;68639;52.380;9.822;2023-08-17T07:41:58;8.02;;;6.00;;
79212;SDS011;68639;52.380;9.822;2023-08-17T07:44:23;10.45;;;5.82;;
79212;SDS011;68639;52.380;9.822;2023-08-17T07:46:48;7.95;;;5.22;;
79212;SDS011;68639;52.380;9.822;2023-08-17T07:49:13;8.68;;;5.88;;
79212;SDS011;68639;52.380;9.822;2023-08-17T07:51:38;7.63;;;5.75;;
79212;SDS011;68639;52.380;9.822;2023-08-17T07:54:04;7.00;;;5.38;;
79212;SDS011;68639;52.380;9.822;2023-08-17T07:56:29;7.43;;;5.28;;
79212;SDS011;68639;52.380;9.822;2023-08-17T07:58:54;6.68;;;5.57;;
79212;SDS011;68639;52.380;9.822;2023-08-17T08:01:20;6.72;;;5.00;;
79212;SDS011;68639;52.380;9.822;2023-08-17T08:03:45;8.98;;;6.55;;
79212;SDS011;68639;52.380;9.822;2023-08-17T08:06:10;6.38;;;4.80;;
79212;SDS011;68639;52.380;9.822;2023-08-17T08:08:35;7.20;;;5.13;;
79212;SDS011;68639;52.380;9.822;2023-08-17T08:11:00;7.78;;;5.30;;
79212;SDS011;68639;52.380;9.822;2023-08-17T08:13:26;8.00;;;5.30;;
79212;SDS011;68639;52.380;9.822;2023-08-17T08:15:51;6.55;;;4.78;;
79212;SDS011;68639;52.380;9.822;2023-08-17T08:18:16;6.95;;;5.13;;
79212;SDS011;68639;52.380;9.822;2023-08-17T08:20:41;9.60;;;5.03;;
79212;SDS011;68639;52.380;9.822;2023-08-17T08:23:06;6.28;;;4.78;;
79212;SDS011;68639;52.380;9.822;2023-08-17T08:25:32;10.20;;;5.05;;
79212;SDS011;68639;52.380;9.822;2023-08-17T08:27:57;9.40;;;5.55;;
79212;SDS011;68639;52.380;9.822;2023-08-17T08:30:22;5.75;;;4.57;;
79212;SDS011;68639;52.380;9.822;2023-08-17T08:32:47;5.60;;;4.97;;
79212;SDS011;68639;52.380;9.822;2023-08-17T08:35:13;5.65;;;4.47;;
79212;SDS011;68639;52.380;9.822;2023-08-17T08:37:38;5.90;;;4.57;;
79212;SDS011;68639;52.380;9.822;2023-08-17T08:40:03;7.60;;;5.47;;
79212;SDS011;68639;52.380;9.822;2023-08-17T08:42:29;9.00;;;5.00;;
79212;SDS011;68639;52.380;9.822;2023-08-17T08:44:54;8.85;;;4.25;;
79212;SDS011;68639;52.380;9.822;2023-08-17T08:47:19;7.30;;;4.22;;
79212;SDS011;68639;52.380;9.822;2023-08-17T08:49:49;6.47;;;4.10;;
79212;SDS011;68639;52.380;9.822;2023-08-17T08:52:16;6.45;;;3.80;;
79212;SDS011;68639;52.380;9.822;2023-08-17T08:54:44;5.30;;;3.25;;
79212;SDS011;68639;52.380;9.822;2023-08-17T08:57:12;4.45;;;3.72;;
79212;SDS011;68639;52.380;9.822;2023-08-17T08:59:38;5.75;;;3.85;;
79212;SDS011;68639;52.380;9.822;2023-08-17T09:02:09;4.00;;;3.33;;
79212;SDS011;68639;52.380;9.822;2023-08-17T09:04:35;5.68;;;3.30;;
79212;SDS011;68639;52.380;9.822;2023-08-17T09:07:00;5.32;;;3.72;;
79212;SDS011;68639;52.380;9.822;2023-08-17T09:09:26;3.78;;;3.15;;
79212;SDS011;68639;52.380;9.822;2023-08-17T09:11:52;4.07;;;3.22;;
79212;SDS011;68639;52.380;9.822;2023-08-17T09:14:17;4.60;;;3.00;;
79212;SDS011;68639;52.380;9.822;2023-08-17T09:16:42;4.97;;;3.45;;
79212;SDS011;68639;52.380;9.822;2023-08-17T09:19:07;4.45;;;3.20;;
79212;SDS011;68639;52.380;9.822;2023-08-17T09:21:32;4.95;;;2.80;;
79212;SDS011;68639;52.380;9.822;2023-08-17T09:23:58;4.05;;;2.90;;
79212;SDS011;68639;52.380;9.822;2023-08-17T09:26:23;6.50;;;3.35;;
79212;SDS011;68639;52.380;9.822;2023-08-17T09:28:49;3.33;;;2.78;;
79212;SDS011;68639;52.380;9.822;2023-08-17T09:31:15;5.72;;;2.88;;
79212;SDS011;68639;52.380;9.822;2023-08-17T09:33:40;5.68;;;3.03;;
79212;SDS011;68639;52.380;9.822;2023-08-17T09:36:05;3.60;;;2.20;;
79212;SDS011;68639;52.380;9.822;2023-08-17T09:38:30;3.15;;;2.33;;
79212;SDS011;68639;52.380;9.822;2023-08-17T09:40:56;3.58;;;2.33;;
79212;SDS011;68639;52.380;9.822;2023-08-17T09:43:22;4.85;;;2.70;;
79212;SDS011;68639;52.380;9.822;2023-08-17T09:45:47;4.05;;;2.63;;
79212;SDS011;68639;52.380;9.822;2023-08-17T09:48:15;5.82;;;2.58;;
79212;SDS011;68639;52.380;9.822;2023-08-17T09:50:42;4.10;;;3.05;;
79212;SDS011;68639;52.380;9.822;2023-08-17T09:53:08;4.47;;;3.20;;
79212;SDS011;68639;52.380;9.822;2023-08-17T09:55:37;4.45;;;3.45;;
79212;SDS011;68639;52.380;9.822;2023-08-17T09:58:03;4.43;;;3.08;;
79212;SDS011;68639;52.380;9.822;2023-08-17T10:00:28;4.82;;;3.67;;
79212;SDS011;68639;52.380;9.822;2023-08-17T10:02:55;6.28;;;3.30;;
79212;SDS011;68639;52.380;9.822;2023-08-17T10:05:22;5.10;;;3.38;;
79212;SDS011;68639;52.380;9.822;2023-08-17T10:07:51;6.68;;;3.70;;
79212;SDS011;68639;52.380;9.822;2023-08-17T10:10:19;4.43;;;3.20;;
79212;SDS011;68639;52.380;9.822;2023-08-17T10:12:53;6.78;;;2.83;;
79212;SDS011;68639;52.380;9.822;2023-08-17T10:15:21;4.00;;;2.80;;
79212;SDS011;68639;52.380;9.822;2023-08-17T10:20:23;3.65;;;2.70;;
79212;SDS011;68639;52.380;9.822;2023-08-17T10:22:51;4.07;;;2.78;;
79212;SDS011;68639;52.380;9.822;2023-08-17T10:25:17;4.80;;;2.70;;
79212;SDS011;68639;52.380;9.822;2023-08-17T10:27:44;4.75;;;2.60;;
79212;SDS011;68639;52.380;9.822;2023-08-17T10:30:10;6.40;;;2.40;;
79212;SDS011;68639;52.380;9.822;2023-08-17T10:32:35;4.20;;;2.60;;
79212;SDS011;68639;52.380;9.822;2023-08-17T10:35:00;7.45;;;3.20;;
79212;SDS011;68639;52.380;9.822;2023-08-17T10:37:27;5.22;;;3.38;;
79212;SDS011;68639;52.380;9.822;2023-08-17T10:39:53;6.32;;;3.20;;
79212;SDS011;68639;52.380;9.822;2023-08-17T10:42:31;5.93;;;3.30;;
79212;SDS011;68639;52.380;9.822;2023-08-17T10:44:57;5.35;;;3.17;;
79212;SDS011;68639;52.380;9.822;2023-08-17T10:49:51;4.93;;;2.92;;
79212;SDS011;68639;52.380;9.822;2023-08-17T10:52:26;6.07;;;3.70;;
79212;SDS011;68639;52.380;9.822;2023-08-17T10:54:52;7.95;;;3.72;;
79212;SDS011;68639;52.380;9.822;2023-08-17T10:57:36;5.20;;;3.28;;
79212;SDS011;68639;52.380;9.822;2023-08-17T11:02:33;6.00;;;3.47;;
79212;SDS011;68639;52.380;9.822;2023-08-17T11:04:58;6.05;;;3.70;;
79212;SDS011;68639;52.380;9.822;2023-08-17T11:07:24;8.13;;;3.90;;
79212;SDS011;68639;52.380;9.822;2023-08-17T11:09:52;7.68;;;4.30;;
79212;SDS011;68639;52.380;9.822;2023-08-17T11:12:24;6.70;;;3.80;;
79212;SDS011;68639;52.380;9.822;2023-08-17T11:14:49;5.70;;;3.42;;
79212;SDS011;68639;52.380;9.822;2023-08-17T11:17:15;6.38;;;3.33;;
79212;SDS011;68639;52.380;9.822;2023-08-17T11:19:40;5.38;;;3.42;;
79212;SDS011;68639;52.380;9.822;2023-08-17T11:22:05;5.30;;;3.50;;
79212;SDS011;68639;52.380;9.822;2023-08-17T11:24:30;5.68;;;3.65;;
79212;SDS011;68639;52.380;9.822;2023-08-17T11:26:56;6.10;;;3.40;;
79212;SDS011;68639;52.380;9.822;2023-08-17T11:29:21;11.25;;;3.50;;
79212;SDS011;68639;52.380;9.822;2023-08-17T11:31:49;7.20;;;3.53;;
79212;SDS011;68639;52.380;9.822;2023-08-17T11:34:15;7.97;;;2.72;;
79212;SDS011;68639;52.380;9.822;2023-08-17T11:36:40;5.05;;;2.88;;
79212;SDS011;68639;52.380;9.822;2023-08-17T11:39:06;5.32;;;2.72;;
79212;SDS011;68639;52.380;9.822;2023-08-17T11:41:33;7.97;;;2.72;;
79212;SDS011;68639;52.380;9.822;2023-08-17T11:43:58;4.05;;;2.88;;
79212;SDS011;68639;52.380;9.822;2023-08-17T11:46:24;4.07;;;2.58;;
79212;SDS011;68639;52.380;9.822;2023-08-17T11:48:50;8.68;;;2.92;;
79212;SDS011;68639;52.380;9.822;2023-08-17T11:51:27;3.53;;;2.45;;
79212;SDS011;68639;52.380;9.822;2023-08-17T11:53:53;5.88;;;2.83;;
79212;SDS011;68639;52.380;9.822;2023-08-17T11:56:18;5.95;;;2.50;;
79212;SDS011;68639;52.380;9.822;2023-08-17T11:58:45;4.53;;;2.60;;
79212;SDS011;68639;52.380;9.822;2023-08-17T12:01:11;4.60;;;2.55;;
79212;SDS011;68639;52.380;9.822;2023-08-17T12:03:37;4.50;;;2.65;;
79212;SDS011;68639;52.380;9.822;2023-08-17T12:06:02;5.35;;;2.90;;
79212;SDS011;68639;52.380;9.822;2023-08-17T12:08:29;4.88;;;2.75;;
79212;SDS011;68639;52.380;9.822;2023-08-17T12:10:54;5.30;;;3.40;;
79212;SDS011;68639;52.380;9.822;2023-08-17T12:13:19;4.68;;;3.00;;
79212;SDS011;68639;52.380;9.822;2023-08-17T12:15:45;7.50;;;3.00;;
79212;SDS011;68639;52.380;9.822;2023-08-17T12:18:10;5.13;;;3.13;;
79212;SDS011;68639;52.380;9.822;2023-08-17T12:20:35;7.03;;;2.75;;
79212;SDS011;68639;52.380;9.822;2023-08-17T12:23:01;5.35;;;2.97;;
79212;SDS011;68639;52.380;9.822;2023-08-17T12:25:26;4.68;;;3.40;;
79212;SDS011;68639;52.380;9.822;2023-08-17T12:27:52;6.03;;;3.63;;
79212;SDS011;68639;52.380;9.822;2023-08-17T12:30:27;5.13;;;3.28;;
79212;SDS011;68639;52.380;9.822;2023-08-17T12:32:52;4.45;;;2.83;;
79212;SDS011;68639;52.380;9.822;2023-08-17T12:35:17;5.95;;;2.47;;
79212;SDS011;68639;52.380;9.822;2023-08-17T12:37:44;8.50;;;3.13;;
79212;SDS011;68639;52.380;9.822;2023-08-17T12:40:09;5.30;;;2.67;;
79212;SDS011;68639;52.380;9.822;2023-08-17T12:42:35;4.65;;;2.50;;
79212;SDS011;68639;52.380;9.822;2023-08-17T12:45:00;8.18;;;3.17;;
79212;SDS011;68639;52.380;9.822;2023-08-17T12:47:25;9.45;;;2.88;;
79212;SDS011;68639;52.380;9.822;2023-08-17T12:49:50;5.45;;;2.97;;
79212;SDS011;68639;52.380;9.822;2023-08-17T12:52:16;5.32;;;2.70;;
79212;SDS011;68639;52.380;9.822;2023-08-17T12:54:41;5.05;;;2.85;;
79212;SDS011;68639;52.380;9.822;2023-08-17T12:57:06;5.28;;;2.60;;
79212;SDS011;68639;52.380;9.822;2023-08-17T12:59:31;6.35;;;2.90;;
79212;SDS011;68639;52.380;9.822;2023-08-17T13:01:57;5.38;;;2.60;;
79212;SDS011;68639;52.380;9.822;2023-08-17T13:04:23;5.85;;;3.00;;
79212;SDS011;68639;52.380;9.822;2023-08-17T13:06:48;5.53;;;2.88;;
79212;SDS011;68639;52.380;9.822;2023-08-17T13:09:15;6.15;;;3.63;;
79212;SDS011;68639;52.380;9.822;2023-08-17T13:11:40;6.38;;;2.97;;
79212;SDS011;68639;52.380;9.822;2023-08-17T13:14:06;5.88;;;3.08;;
79212;SDS011;68639;52.380;9.822;2023-08-17T13:16:31;5.75;;;3.35;;
79212;SDS011;68639;52.380;9.822;2023-08-17T13:18:56;5.00;;;3.10;;
79212;SDS011;68639;52.380;9.822;2023-08-17T13:21:21;6.20;;;3.03;;
79212;SDS011;68639;52.380;9.822;2023-08-17T13:23:46;6.80;;;2.90;;
79212;SDS011;68639;52.380;9.822;2023-08-17T13:26:12;5.32;;;3.25;;
79212;SDS011;68639;52.380;9.822;2023-08-17T13:28:37;5.80;;;3.03;;
79212;SDS011;68639;52.380;9.822;2023-08-17T13:31:02;5.60;;;3.60;;
79212;SDS011;68639;52.380;9.822;2023-08-17T13:33:27;5.90;;;3.13;;
79212;SDS011;68639;52.380;9.822;2023-08-17T13:35:53;5.95;;;3.50;;
79212;SDS011;68639;52.380;9.822;2023-08-17T13:38:19;6.03;;;3.85;;
79212;SDS011;68639;52.380;9.822;2023-08-17T13:40:44;8.13;;;3.50;;
79212;SDS011;68639;52.380;9.822;2023-08-17T13:43:10;5.45;;;3.47;;
79212;SDS011;68639;52.380;9.822;2023-08-17T13:45:39;6.85;;;3.72;;
79212;SDS011;68639;52.380;9.822;2023-08-17T13:48:04;6.13;;;3.53;;
79212;SDS011;68639;52.380;9.822;2023-08-17T13:50:29;6.32;;;3.55;;
79212;SDS011;68639;52.380;9.822;2023-08-17T13:52:55;7.03;;;3.40;;
79212;SDS011;68639;52.380;9.822;2023-08-17T13:55:20;5.40;;;3.17;;
79212;SDS011;68639;52.380;9.822;2023-08-17T13:57:45;7.07;;;3.00;;
79212;SDS011;68639;52.380;9.822;2023-08-17T14:00:11;6.43;;;2.90;;
79212;SDS011;68639;52.380;9.822;2023-08-17T14:02:37;6.15;;;3.30;;
79212;SDS011;68639;52.380;9.822;2023-08-17T14:05:02;6.32;;;3.35;;
79212;SDS011;68639;52.380;9.822;2023-08-17T14:07:27;7.10;;;3.60;;
79212;SDS011;68639;52.380;9.822;2023-08-17T14:09:52;6.07;;;3.45;;
79212;SDS011;68639;52.380;9.822;2023-08-17T14:12:17;5.88;;;3.70;;
79212;SDS011;68639;52.380;9.822;2023-08-17T14:14:43;7.70;;;3.72;;
79212;SDS011;68639;52.380;9.822;2023-08-17T14:17:08;6.43;;;3.92;;
79212;SDS011;68639;52.380;9.822;2023-08-17T14:19:33;7.57;;;3.95;;
79212;SDS011;68639;52.380;9.822;2023-08-17T14:21:58;8.52;;;4.65;;
79212;SDS011;68639;52.380;9.822;2023-08-17T14:24:25;7.57;;;4.20;;
79212;SDS011;68639;52.380;9.822;2023-08-17T14:26:51;7.30;;;4.22;;
79212;SDS011;68639;52.380;9.822;2023-08-17T14:29:16;7.22;;;4.03;;
79212;SDS011;68639;52.380;9.822;2023-08-17T14:31:41;8.15;;;4.18;;
79212;SDS011;68639;52.380;9.822;2023-08-17T14:34:06;10.07;;;4.28;;
79212;SDS011;68639;52.380;9.822;2023-08-17T14:36:31;13.30;;;4.50;;
79212;SDS011;68639;52.380;9.822;2023-08-17T14:38:57;8.65;;;4.65;;